Time;durP1;ratioP1;P1;durP2;ratioP2;P2;SDS_P1;SDS_P2;PMS_P1;PMS_P2;Temp;Humidity;BMP_temperature;BMP_pressure;BME280_temperature;BME280_humidity;BME280_pressure;Samples;Min_cycle;Max_cycle;Signal;HPM_P1;HPM_P2
2022/03/24 00:02:28;;;;;;;;;;;;;;;-139.34;100.00;63888.56;10631175;27;20024;-64
2022/03/24 00:07:50;;;;;;;;;;;;;;;-139.34;100.00;63888.56;10635817;27;19930;-64
2022/03/24 00:13:11;;;;;;;;;;;;;;;-139.34;100.00;63888.56;10614764;27;19920;-64
2022/03/24 00:18:34;;;;;;;;;;;;;;;-139.34;100.00;63888.56;10619150;27;19924;-64
2022/03/24 00:23:57;;;;;;;;;;;;;;;-139.34;100.00;63888.56;10613624;27;20096;-64
2022/03/24 00:29:19;;;;;;;;;;;;;;;-139.34;100.00;63888.56;10601142;27;19919;-64
2022/03/24 00:34:40;;;;;;;;;;;;;;;-139.34;100.00;63888.56;10603097;27;19934;-65
2022/03/24 00:40:06;;;;;;;;;;;;;;;-139.34;100.00;63888.56;10596206;27;19926;-64
2022/03/24 00:45:29;;;;;;;;;;;;;;;-139.34;100.00;63888.56;10610779;27;20010;-64
2022/03/24 00:50:50;;;;;;;;;;;;;;;-139.34;100.00;63888.56;10578523;27;19923;-64
2022/03/24 00:56:13;;;;;;;;;;;;;;;-139.34;100.00;63888.56;10616468;27;19948;-64
2022/03/24 01:01:35;;;;;;;;;;;;;;;-139.34;100.00;63888.56;10635493;27;19930;-64
2022/03/24 01:06:56;;;;;;;;;;;;;;;-139.34;100.00;63888.56;10634749;27;19925;-64
2022/03/24 01:12:18;;;;;;;;;;;;;;;-139.34;100.00;63888.56;10634311;27;19919;-64
2022/03/24 01:17:41;;;;;;;;;;;;;;;-139.34;100.00;63888.56;10624097;27;20075;-64
2022/03/24 01:23:02;;;;;;;;;;;;;;;-139.34;100.00;63888.56;10570595;27;19923;-64
2022/03/24 01:28:24;;;;;;;;;;;;;;;-139.34;100.00;63888.56;10599787;27;19930;-64
2022/03/24 01:33:47;;;;;;;;;;;;;;;-139.34;100.00;63888.56;10586717;27;19919;-64
2022/03/24 01:39:10;;;;;;;;;;;;;;;-139.34;100.00;63888.56;10612709;27;19925;-64
2022/03/24 01:44:32;;;;;;;;;;;;;;;-139.34;100.00;63888.56;10600288;27;19926;-65
2022/03/24 01:49:58;;;;;;;;;;;;;;;-139.34;100.00;63888.56;10588794;27;19930;-64
2022/03/24 01:55:19;;;;;;;;;;;;;;;-139.34;100.00;63888.56;10600421;27;20388;-64
2022/03/24 02:00:44;;;;;;;;;;;;;;;-139.34;100.00;63888.56;10594414;27;19930;-64
2022/03/24 02:06:05;;;;;;;;;;;;;;;-139.34;100.00;63888.56;10596900;27;19927;-64
2022/03/24 02:11:28;;;;;;;;;;;;;;;-139.34;100.00;63888.56;10633239;27;19927;-64
2022/03/24 02:16:50;;;;;;;;;;;;;;;-139.34;100.00;63888.56;10610863;27;19919;-64
2022/03/24 02:22:17;;;;;;;;;;;;;;;-139.34;100.00;63888.56;10636842;27;20283;-64
2022/03/24 02:27:40;;;;;;;;;;;;;;;-139.34;100.00;63888.56;10607005;28;20271;-64
2022/03/24 02:33:01;;;;;;;;;;;;;;;-139.34;100.00;63888.56;10612420;27;20010;-64
2022/03/24 02:38:23;;;;;;;;;;;;;;;-139.34;100.00;63888.56;10644654;27;19919;-64
2022/03/24 02:43:44;;;;;;;;;;;;;;;-139.34;100.00;63888.56;10609735;28;20338;-64
2022/03/24 02:49:06;;;;;;;;;;;;;;;-139.34;100.00;63888.56;10614398;28;19923;-64
2022/03/24 02:54:29;;;;;;;;;;;;;;;-139.34;100.00;63888.56;10623738;27;19934;-64
2022/03/24 02:59:50;;;;;;;;;;;;;;;-139.34;100.00;63888.56;10640100;27;19919;-64
2022/03/24 03:05:12;;;;;;;;;;;;;;;-139.34;100.00;63888.56;10599622;27;19926;-64
2022/03/24 03:10:34;;;;;;;;;;;;;;;-139.34;100.00;63888.56;10622873;27;19919;-64
2022/03/24 03:15:55;;;;;;;;;;;;;;;-139.34;100.00;63888.56;10647851;27;19930;-64
2022/03/24 03:21:17;;;;;;;;;;;;;;;-139.34;100.00;63888.56;10612200;27;20372;-64
2022/03/24 03:26:39;;;;;;;;;;;;;;;-139.34;100.00;63888.56;10606047;27;19923;-64
2022/03/24 03:32:02;;;;;;;;;;;;;;;-139.34;100.00;63888.56;10601488;27;20367;-64
2022/03/24 03:37:24;;;;;;;;;;;;;;;-139.34;100.00;63888.56;10596921;27;20383;-64
2022/03/24 03:42:49;;;;;;;;;;;;;;;-139.34;100.00;63888.56;10567187;27;19927;-64
2022/03/24 03:48:11;;;;;;;;;;;;;;;-139.34;100.00;63888.56;10575966;27;19952;-63
2022/03/24 03:53:34;;;;;;;;;;;;;;;-139.34;100.00;63888.56;10583971;27;19919;-64
2022/03/24 03:58:55;;;;;;;;;;;;;;;-139.34;100.00;63888.56;10603149;27;20405;-64
2022/03/24 04:04:17;;;;;;;;;;;;;;;-139.34;100.00;63888.56;10594637;27;20438;-64
2022/03/24 04:09:38;;;;;;;;;;;;;;;-139.34;100.00;63888.56;10559377;27;20248;-66
2022/03/24 04:15:00;;;;;;;;;;;;;;;-139.34;100.00;63888.56;10634406;27;19919;-65
2022/03/24 04:20:22;;;;;;;;;;;;;;;-139.34;100.00;63888.56;10616089;27;20655;-65
2022/03/24 04:25:43;;;;;;;;;;;;;;;-139.34;100.00;63888.56;10605220;27;19923;-65
2022/03/24 04:31:05;;;;;;;;;;;;;;;-139.34;100.00;63888.56;10565074;28;19930;-65
2022/03/24 04:36:27;;;;;;;;;;;;;;;-139.34;100.00;63888.56;10599829;27;20255;-65
2022/03/24 04:41:48;;;;;;;;;;;;;;;-139.34;100.00;63888.56;10569339;28;19927;-66
2022/03/24 04:47:10;;;;;;;;;;;;;;;-139.34;100.00;63888.56;10605872;27;19923;-66
2022/03/24 04:52:31;;;;;;;;;;;;;;;-139.34;100.00;63888.56;10619649;27;19923;-65
2022/03/24 04:57:53;;;;;;;;;;;;;;;-139.34;100.00;63888.56;10593077;27;19919;-65
2022/03/24 05:03:15;;;;;;;;;;;;;;;-139.34;100.00;63888.56;10595598;27;19931;-65
2022/03/24 05:08:36;;;;;;;;;;;;;;;-139.34;100.00;63888.56;10622151;27;19927;-66
2022/03/24 05:13:58;;;;;;;;;;;;;;;-139.34;100.00;63888.56;10615490;27;20006;-66
2022/03/24 05:19:19;;;;;;;;;;;;;;;-139.34;100.00;63888.56;10628654;27;19923;-65
2022/03/24 05:24:41;;;;;;;;;;;;;;;-139.34;100.00;63888.56;10630548;27;19919;-65
2022/03/24 05:30:03;;;;;;;;;;;;;;;-139.34;100.00;63888.56;10589857;27;19923;-66
2022/03/24 05:35:25;;;;;;;;;;;;;;;-139.34;100.00;63888.56;10648073;27;19919;-65
2022/03/24 05:40:47;;;;;;;;;;;;;;;-139.34;100.00;63888.56;10636126;27;20000;-65
2022/03/24 05:46:08;;;;;;;;;;;;;;;-139.34;100.00;63888.56;10623658;27;19926;-66
2022/03/24 05:51:30;;;;;;;;;;;;;;;-139.34;100.00;63888.56;10597795;27;19926;-66
2022/03/24 05:56:52;;;;;;;;;;;;;;;-139.34;100.00;63888.56;10586563;27;19919;-66
2022/03/24 06:02:13;;;;;;;;;;;;;;;-139.34;100.00;63888.56;10640829;27;19926;-66
2022/03/24 06:07:36;;;;;;;;;;;;;;;-139.34;100.00;63888.56;10593621;28;19958;-66
2022/03/24 06:12:58;;;;;;;;;;;;;;;-139.34;100.00;63888.56;10578739;28;19924;-65
2022/03/24 06:18:20;;;;;;;;;;;;;;;-139.34;100.00;63888.56;10656504;27;19919;-66
2022/03/24 06:23:43;;;;;;;;;;;;;;;-139.34;100.00;63888.56;10584791;28;19942;-66
2022/03/24 06:29:05;;;;;;;;;;;;;;;-139.34;100.00;63888.56;10594110;27;19954;-66
2022/03/24 06:34:27;;;;;;;;;;;;;;;-139.34;100.00;63888.56;10614277;27;19930;-66
2022/03/24 06:39:48;;;;;;;;;;;;;;;-139.34;100.00;63888.56;10623891;27;19925;-65
2022/03/24 06:45:10;;;;;;;;;;;;;;;-139.34;100.00;63888.56;10643544;27;19926;-66
2022/03/24 06:50:32;;;;;;;;;;;;;;;-139.34;100.00;63888.56;10628075;27;19926;-66
2022/03/24 06:55:54;;;;;;;;;;;;;;;-139.34;100.00;63888.56;10602850;27;19934;-66
2022/03/24 07:01:17;;;;;;;;;;;;;;;-139.34;100.00;63888.56;10644436;27;19918;-65
2022/03/24 07:06:40;;;;;;;;;;;;;;;-139.34;100.00;63888.56;10585913;27;20429;-65
2022/03/24 07:12:02;;;;;;;;;;;;;;;-139.34;100.00;63888.56;10592818;27;19974;-66
2022/03/24 07:17:23;;;;;;;;;;;;;;;-139.34;100.00;63888.56;10598251;27;19919;-66
2022/03/24 07:22:45;;;;;;;;;;;;;;;-139.34;100.00;63888.56;10637041;27;20024;-66
2022/03/24 07:28:07;;;;;;;;;;;;;;;-139.34;100.00;63888.56;10612693;27;19926;-66
2022/03/24 07:33:29;;;;;;;;;;;;;;;-139.34;100.00;63888.56;10598134;27;19930;-66
2022/03/24 07:38:51;;;;;;;;;;;;;;;-139.34;100.00;63888.56;10616886;27;19919;-65
2022/03/24 07:44:13;;;;;;;;;;;;;;;-139.34;100.00;63888.56;10615126;27;19923;-65
2022/03/24 07:49:34;;;;;;;;;;;;;;;-139.34;100.00;63888.56;10655943;27;19997;-65
2022/03/24 07:55:00;;;;;;;;;;;;;;;-139.34;100.00;63888.56;10623621;27;19919;-65
2022/03/24 08:00:22;;;;;;;;;;;;;;;-139.34;100.00;63888.56;10599694;27;20303;-65
2022/03/24 08:05:44;;;;;;;;;;;;;;;-139.34;100.00;63888.56;10623326;27;19967;-65
2022/03/24 08:11:06;;;;;;;;;;;;;;;-139.34;100.00;63888.56;10624610;27;19919;-65
2022/03/24 08:16:27;;;;;;;;;;;;;;;-139.34;100.00;63888.56;10654981;27;19919;-65
2022/03/24 08:21:49;;;;;;;;;;;;;;;-139.34;100.00;63888.56;10590312;27;19923;-65
2022/03/24 08:27:11;;;;;;;;;;;;;;;-139.34;100.00;63888.56;10579580;27;19929;-65
2022/03/24 08:32:33;;;;;;;;;;;;;;;-139.34;100.00;63888.56;10606330;27;20411;-65
2022/03/24 08:37:55;;;;;;;;;;;;;;;-139.34;100.00;63888.56;10604661;27;19938;-65
2022/03/24 08:43:17;;;;;;;;;;;;;;;-139.34;100.00;63888.56;10594887;27;19923;-65
2022/03/24 08:48:39;;;;;;;;;;;;;;;-139.34;100.00;63888.56;10614129;27;19926;-66
2022/03/24 08:54:07;;;;;;;;;;;;;;;-139.34;100.00;63888.56;10599520;27;19919;-65
2022/03/24 08:59:29;;;;;;;;;;;;;;;-139.34;100.00;63888.56;10589655;27;20405;-65
2022/03/24 09:04:50;;;;;;;;;;;;;;;-139.34;100.00;63888.56;10610764;27;20386;-66
2022/03/24 09:10:28;;;;;;;;;;;;;;;-139.34;100.00;63888.56;10617481;27;19951;-66
2022/03/24 09:15:50;;;;;;;;;;;;;;;-139.34;100.00;63888.56;10605084;27;19926;-65
2022/03/24 09:21:12;;;;;;;;;;;;;;;-139.34;100.00;63888.56;10602964;27;20372;-66
2022/03/24 09:26:36;;;;;;;;;;;;;;;-139.34;100.00;63888.56;10581095;27;19920;-66
2022/03/24 09:31:57;;;;;;;;;;;;;;;-139.34;100.00;63888.56;10579410;27;19923;-65
2022/03/24 09:37:22;;;;;;;;;;;;;;;-139.34;100.00;63888.56;10656549;27;19930;-65
2022/03/24 09:42:43;;;;;;;;;;;;;;;-139.34;100.00;63888.56;10609979;27;20413;-65
2022/03/24 09:48:06;;;;;;;;;;;;;;;-139.34;100.00;63888.56;10601369;27;19926;-65
2022/03/24 09:53:27;;;;;;;;;;;;;;;-139.34;100.00;63888.56;10564592;27;19930;-65
2022/03/24 09:58:49;;;;;;;;;;;;;;;-139.34;100.00;63888.56;10559286;28;19926;-64
2022/03/24 10:04:14;;;;;;;;;;;;;;;-139.34;100.00;63888.56;10643471;27;19923;-66
2022/03/24 10:09:49;;;;;;;;;;;;;;;-139.34;100.00;63888.56;10617075;27;19919;-64
2022/03/24 10:15:12;;;;;;;;;;;;;;;-139.34;100.00;63888.56;10626377;27;19927;-66
2022/03/24 10:20:33;;;;;;;;;;;;;;;-139.34;100.00;63888.56;10652419;27;19919;-66
2022/03/24 10:26:01;;;;;;;;;;;;;;;-139.34;100.00;63888.56;10631064;27;19930;-67
2022/03/24 10:31:32;;;;;;;;;;;;;;;-139.34;100.00;63888.56;10652109;27;19919;-64
2022/03/24 10:36:54;;;;;;;;;;;;;;;-139.34;100.00;63888.56;10615541;27;19919;-66
2022/03/24 10:42:17;;;;;;;;;;;;;;;-139.34;100.00;63888.56;10593204;27;20291;-66
2022/03/24 10:47:46;;;;;;;;;;;;;;;-139.34;100.00;63888.56;10600553;27;19954;-66
2022/03/24 10:53:09;;;;;;;;;;;;;;;-139.34;100.00;63888.56;10609258;27;19923;-66
2022/03/24 10:58:40;;;;;;;;;;;;;;;-139.34;100.00;63888.56;10608766;27;19919;-66
2022/03/24 11:04:02;;;;;;;;;;;;;;;-139.34;100.00;63888.56;10619487;27;19924;-66
2022/03/24 11:09:25;;;;;;;;;;;;;;;-139.34;100.00;63888.56;10623873;27;19970;-66
2022/03/24 11:14:50;;;;;;;;;;;;;;;-139.34;100.00;63888.56;10601324;27;19923;-65
2022/03/24 11:20:32;;;;;;;;;;;;;;;-139.34;100.00;63888.56;10608575;27;19927;-68
2022/03/24 11:25:57;;;;;;;;;;;;;;;-139.34;100.00;63888.56;10567211;27;19923;-64
2022/03/24 11:31:18;;;;;;;;;;;;;;;-139.34;100.00;63888.56;10605849;27;19942;-65
2022/03/24 11:36:41;;;;;;;;;;;;;;;-139.34;100.00;63888.56;10645428;27;20391;-66
2022/03/24 11:42:03;;;;;;;;;;;;;;;-139.34;100.00;63888.56;10599690;27;19934;-64
2022/03/24 11:47:25;;;;;;;;;;;;;;;-139.34;100.00;63888.56;10612136;27;20358;-65
2022/03/24 11:53:07;;;;;;;;;;;;;;;-139.34;100.00;63888.56;10615355;27;19980;-65
2022/03/24 11:58:35;;;;;;;;;;;;;;;-139.34;100.00;63888.56;10617955;27;20488;-65
2022/03/24 12:04:03;;;;;;;;;;;;;;;-139.34;100.00;63888.56;10604030;27;19929;-65
2022/03/24 12:09:26;;;;;;;;;;;;;;;-139.34;100.00;63888.56;10586843;27;19926;-66
2022/03/24 12:14:48;;;;;;;;;;;;;;;-139.34;100.00;63888.56;10604978;27;19933;-65
2022/03/24 12:20:20;;;;;;;;;;;;;;;-139.34;100.00;63888.56;10638276;27;19919;-65
2022/03/24 12:25:41;;;;;;;;;;;;;;;-139.34;100.00;63888.56;10597411;27;19920;-65
2022/03/24 12:31:06;;;;;;;;;;;;;;;-139.34;100.00;63888.56;10623741;27;19926;-66
2022/03/24 12:36:39;;;;;;;;;;;;;;;-139.34;100.00;63888.56;10643923;27;19931;-65
2022/03/24 12:42:20;;;;;;;;;;;;;;;-139.34;100.00;63888.56;10597761;27;19919;-65
2022/03/24 12:47:42;;;;;;;;;;;;;;;-139.34;100.00;63888.56;10573476;27;20438;-66
2022/03/24 12:53:04;;;;;;;;;;;;;;;-139.34;100.00;63888.56;10567077;27;20384;-65
2022/03/24 12:58:26;;;;;;;;;;;;;;;-139.34;100.00;63888.56;10601331;27;19960;-65
2022/03/24 13:03:54;;;;;;;;;;;;;;;-139.34;100.00;63888.56;10603286;27;19923;-65
2022/03/24 13:09:18;;;;;;;;;;;;;;;-139.34;100.00;63888.56;10623551;27;19943;-65
2022/03/24 13:14:45;;;;;;;;;;;;;;;-139.34;100.00;63888.56;10600643;27;20605;-65
2022/03/24 13:20:07;;;;;;;;;;;;;;;-139.34;100.00;63888.56;10638245;27;20339;-65
2022/03/24 13:25:29;;;;;;;;;;;;;;;-139.34;100.00;63888.56;10591227;27;19928;-65
2022/03/24 13:30:52;;;;;;;;;;;;;;;-139.34;100.00;63888.56;10579996;27;19926;-65
2022/03/24 13:36:13;;;;;;;;;;;;;;;-139.34;100.00;63888.56;10589959;27;19923;-65
2022/03/24 13:41:36;;;;;;;;;;;;;;;-139.34;100.00;63888.56;10586280;27;20367;-65
2022/03/24 13:46:57;;;;;;;;;;;;;;;-139.34;100.00;63888.56;10601462;27;19927;-65
2022/03/24 13:52:33;;;;;;;;;;;;;;;-139.34;100.00;63888.56;10606462;27;19931;-65
2022/03/24 13:57:58;;;;;;;;;;;;;;;-139.34;100.00;63888.56;10590291;28;19942;-65
2022/03/24 14:03:23;;;;;;;;;;;;;;;-139.34;100.00;63888.56;10570726;28;19930;-65
2022/03/24 14:08:47;;;;;;;;;;;;;;;-139.34;100.00;63888.56;10586947;28;20280;-69
2022/03/24 14:14:13;;;;;;;;;;;;;;;-139.34;100.00;63888.56;10545580;28;19963;-69
2022/03/24 14:19:35;;;;;;;;;;;;;;;-139.34;100.00;63888.56;10587247;28;19942;-67
2022/03/24 14:24:56;;;;;;;;;;;;;;;-139.34;100.00;63888.56;10602158;27;19926;-69
2022/03/24 14:30:17;;;;;;;;;;;;;;;-139.34;100.00;63888.56;10544829;28;19920;-69
2022/03/24 14:35:39;;;;;;;;;;;;;;;-139.34;100.00;63888.56;10583047;28;19967;-68
2022/03/24 14:41:01;;;;;;;;;;;;;;;-139.34;100.00;63888.56;10599675;28;19920;-69
2022/03/24 14:46:22;;;;;;;;;;;;;;;-139.34;100.00;63888.56;10655109;27;19919;-68
2022/03/24 14:51:44;;;;;;;;;;;;;;;-139.34;100.00;63888.56;10628940;27;19920;-68
2022/03/24 14:57:05;;;;;;;;;;;;;;;-139.34;100.00;63888.56;10551590;28;19920;-71
2022/03/24 15:02:27;;;;;;;;;;;;;;;-139.34;100.00;63888.56;10620694;27;19965;-66
2022/03/24 15:07:49;;;;;;;;;;;;;;;-139.34;100.00;63888.56;10607116;27;19963;-66
2022/03/24 15:13:11;;;;;;;;;;;;;;;-139.34;100.00;63888.56;10605489;27;19926;-66
2022/03/24 15:18:34;;;;;;;;;;;;;;;-139.34;100.00;63888.56;10577799;27;19930;-65
2022/03/24 15:23:56;;;;;;;;;;;;;;;-139.34;100.00;63888.56;10586149;27;19923;-65
2022/03/24 15:29:18;;;;;;;;;;;;;;;-139.34;100.00;63888.56;10597673;27;20443;-66
2022/03/24 15:34:40;;;;;;;;;;;;;;;-139.34;100.00;63888.56;10566703;27;19963;-66
2022/03/24 15:40:02;;;;;;;;;;;;;;;-139.34;100.00;63888.56;10587053;27;19930;-64
2022/03/24 15:45:23;;;;;;;;;;;;;;;-139.34;100.00;63888.56;10570887;27;19923;-67
2022/03/24 15:50:45;;;;;;;;;;;;;;;-139.34;100.00;63888.56;10587172;27;19923;-66
2022/03/24 15:56:09;;;;;;;;;;;;;;;-139.34;100.00;63888.56;10593341;27;19931;-66
2022/03/24 16:01:31;;;;;;;;;;;;;;;-139.34;100.00;63888.56;10561153;27;19923;-66
2022/03/24 16:06:53;;;;;;;;;;;;;;;-139.34;100.00;63888.56;10576611;27;19931;-66
2022/03/24 16:12:14;;;;;;;;;;;;;;;-139.34;100.00;63888.56;10583665;27;19920;-66
2022/03/24 16:17:36;;;;;;;;;;;;;;;-139.34;100.00;63888.56;10600042;27;19923;-66
2022/03/24 16:23:00;;;;;;;;;;;;;;;-139.34;100.00;63888.56;10578374;27;19923;-67
2022/03/24 16:28:23;;;;;;;;;;;;;;;-139.34;100.00;63888.56;10591662;27;20249;-66
2022/03/24 16:33:44;;;;;;;;;;;;;;;-139.34;100.00;63888.56;10599798;27;19923;-66
2022/03/24 16:39:06;;;;;;;;;;;;;;;-139.34;100.00;63888.56;10579600;27;19923;-66
2022/03/24 16:44:27;;;;;;;;;;;;;;;-139.34;100.00;63888.56;10585704;27;19923;-66
2022/03/24 16:49:49;;;;;;;;;;;;;;;-139.34;100.00;63888.56;10581482;27;19927;-66
2022/03/24 16:55:10;;;;;;;;;;;;;;;-139.34;100.00;63888.56;10563077;27;19927;-66
2022/03/24 17:00:48;;;;;;;;;;;;;;;-139.34;100.00;63888.56;10571622;27;19920;-66
2022/03/24 17:06:17;;;;;;;;;;;;;;;-139.34;100.00;63888.56;10564866;27;19926;-66
2022/03/24 17:11:38;;;;;;;;;;;;;;;-139.34;100.00;63888.56;10567714;27;19924;-65
2022/03/24 17:17:00;;;;;;;;;;;;;;;-139.34;100.00;63888.56;10586031;27;19971;-65
2022/03/24 17:22:21;;;;;;;;;;;;;;;-139.34;100.00;63888.56;10577899;27;19956;-66
2022/03/24 17:27:44;;;;;;;;;;;;;;;-139.34;100.00;63888.56;10571906;27;19923;-66
2022/03/24 17:33:05;;;;;;;;;;;;;;;-139.34;100.00;63888.56;10571165;27;19930;-66
2022/03/24 17:38:28;;;;;;;;;;;;;;;-139.34;100.00;63888.56;10583695;27;20640;-66
2022/03/24 17:43:49;;;;;;;;;;;;;;;-139.34;100.00;63888.56;10572114;27;20002;-65
2022/03/24 17:49:11;;;;;;;;;;;;;;;-139.34;100.00;63888.56;10610439;27;19923;-66
2022/03/24 17:54:32;;;;;;;;;;;;;;;-139.34;100.00;63888.56;10608275;27;20359;-66
2022/03/24 17:59:54;;;;;;;;;;;;;;;-139.34;100.00;63888.56;10558009;28;19920;-66
2022/03/24 18:05:15;;;;;;;;;;;;;;;-139.34;100.00;63888.56;10582380;28;19920;-65
2022/03/24 18:10:37;;;;;;;;;;;;;;;-139.34;100.00;63888.56;10576062;28;19919;-65
2022/03/24 18:15:58;;;;;;;;;;;;;;;-139.34;100.00;63888.56;10602813;27;19930;-65
2022/03/24 18:21:20;;;;;;;;;;;;;;;-139.34;100.00;63888.56;10585361;28;19923;-66
2022/03/24 18:26:42;;;;;;;;;;;;;;;-139.34;100.00;63888.56;10588081;27;19928;-66
2022/03/24 18:32:04;;;;;;;;;;;;;;;-139.34;100.00;63888.56;10588075;27;20292;-65
2022/03/24 18:37:26;;;;;;;;;;;;;;;-139.34;100.00;63888.56;10586572;27;19919;-66
2022/03/24 18:42:48;;;;;;;;;;;;;;;-139.34;100.00;63888.56;10579228;27;19930;-64
2022/03/24 18:48:12;;;;;;;;;;;;;;;-139.34;100.00;63888.56;10577912;27;19923;-64
2022/03/24 18:53:33;;;;;;;;;;;;;;;-139.34;100.00;63888.56;10586163;27;20090;-65
2022/03/24 18:58:58;;;;;;;;;;;;;;;-139.34;100.00;63888.56;10591110;27;20560;-65
2022/03/24 19:04:20;;;;;;;;;;;;;;;-139.34;100.00;63888.56;10568995;27;19928;-65
2022/03/24 19:09:41;;;;;;;;;;;;;;;-139.34;100.00;63888.56;10567381;27;19920;-64
2022/03/24 19:15:04;;;;;;;;;;;;;;;-139.34;100.00;63888.56;10586379;27;19926;-65
2022/03/24 19:20:27;;;;;;;;;;;;;;;-139.34;100.00;63888.56;10589166;27;20281;-65
2022/03/24 19:25:49;;;;;;;;;;;;;;;-139.34;100.00;63888.56;10645841;27;20346;-65
2022/03/24 19:31:10;;;;;;;;;;;;;;;-139.34;100.00;63888.56;10601445;27;19923;-65
2022/03/24 19:36:32;;;;;;;;;;;;;;;-139.34;100.00;63888.56;10605094;27;20383;-65
2022/03/24 19:41:54;;;;;;;;;;;;;;;-139.34;100.00;63888.56;10607119;27;20257;-65
2022/03/24 19:47:17;;;;;;;;;;;;;;;-139.34;100.00;63888.56;10605489;27;19998;-65
2022/03/24 19:52:39;;;;;;;;;;;;;;;-139.34;100.00;63888.56;10633571;27;19919;-64
2022/03/24 19:58:01;;;;;;;;;;;;;;;-139.34;100.00;63888.56;10566304;28;19928;-65
2022/03/24 20:03:25;;;;;;;;;;;;;;;-139.34;100.00;63888.56;10571686;27;20252;-65
2022/03/24 20:08:47;;;;;;;;;;;;;;;-139.34;100.00;63888.56;10600284;27;20303;-65
2022/03/24 20:14:09;;;;;;;;;;;;;;;-139.34;100.00;63888.56;10563178;28;19920;-65
2022/03/24 20:19:31;;;;;;;;;;;;;;;-139.34;100.00;63888.56;10571840;27;19927;-65
2022/03/24 20:24:52;;;;;;;;;;;;;;;-139.34;100.00;63888.56;10584168;27;19926;-65
2022/03/24 20:30:14;;;;;;;;;;;;;;;-139.34;100.00;63888.56;10585737;27;19924;-64
2022/03/24 20:35:41;;;;;;;;;;;;;;;-139.34;100.00;63888.56;10604858;27;19927;-64
2022/03/24 20:41:03;;;;;;;;;;;;;;;-139.34;100.00;63888.56;10612458;27;19920;-65
2022/03/24 20:46:26;;;;;;;;;;;;;;;-139.34;100.00;63888.56;10597444;27;19923;-63
2022/03/24 20:51:48;;;;;;;;;;;;;;;-139.34;100.00;63888.56;10623928;27;19933;-65
2022/03/24 20:57:10;;;;;;;;;;;;;;;-139.34;100.00;63888.56;10588734;27;20434;-65
2022/03/24 21:02:32;;;;;;;;;;;;;;;-139.34;100.00;63888.56;10637367;27;19923;-65
2022/03/24 21:07:55;;;;;;;;;;;;;;;-139.34;100.00;63888.56;10595359;27;19931;-65
2022/03/24 21:13:17;;;;;;;;;;;;;;;-139.34;100.00;63888.56;10592978;27;19926;-65
2022/03/24 21:18:39;;;;;;;;;;;;;;;-139.34;100.00;63888.56;10644838;27;19919;-64
2022/03/24 21:24:01;;;;;;;;;;;;;;;-139.34;100.00;63888.56;10630790;27;19923;-65
2022/03/24 21:29:26;;;;;;;;;;;;;;;-139.34;100.00;63888.56;10589270;27;19926;-65
2022/03/24 21:34:48;;;;;;;;;;;;;;;-139.34;100.00;63888.56;10640200;27;19930;-65
2022/03/24 21:40:10;;;;;;;;;;;;;;;-139.34;100.00;63888.56;10594179;27;20260;-66
2022/03/24 21:45:32;;;;;;;;;;;;;;;-139.34;100.00;63888.56;10608302;27;19923;-66
2022/03/24 21:50:53;;;;;;;;;;;;;;;-139.34;100.00;63888.56;10634295;27;19919;-65
2022/03/24 21:56:16;;;;;;;;;;;;;;;-139.34;100.00;63888.56;10599031;27;20437;-66
2022/03/24 22:01:37;;;;;;;;;;;;;;;-139.34;100.00;63888.56;10587294;28;19923;-64
2022/03/24 22:06:59;;;;;;;;;;;;;;;-139.34;100.00;63888.56;10618768;28;19920;-64
2022/03/24 22:12:20;;;;;;;;;;;;;;;-139.34;100.00;63888.56;10617786;27;20130;-64
2022/03/24 22:17:42;;;;;;;;;;;;;;;-139.34;100.00;63888.56;10638796;27;19927;-64
2022/03/24 22:23:09;;;;;;;;;;;;;;;-139.34;100.00;63888.56;10568367;28;19946;-65
2022/03/24 22:28:30;;;;;;;;;;;;;;;-139.34;100.00;63888.56;10584889;27;20298;-64
2022/03/24 22:33:52;;;;;;;;;;;;;;;-139.34;100.00;63888.56;10601806;28;19926;-64
2022/03/24 22:39:13;;;;;;;;;;;;;;;-139.34;100.00;63888.56;10575087;28;20267;-64
2022/03/24 22:44:35;;;;;;;;;;;;;;;-139.34;100.00;63888.56;10600976;28;19925;-64
2022/03/24 22:49:57;;;;;;;;;;;;;;;-139.34;100.00;63888.56;10652436;27;19919;-64
2022/03/24 22:55:18;;;;;;;;;;;;;;;-139.34;100.00;63888.56;10607024;27;19918;-64
2022/03/24 23:00:40;;;;;;;;;;;;;;;-139.34;100.00;63888.56;10646623;27;19922;-64
2022/03/24 23:06:02;;;;;;;;;;;;;;;-139.34;100.00;63888.56;10622874;28;19934;-63
2022/03/24 23:11:24;;;;;;;;;;;;;;;-139.34;100.00;63888.56;10633938;27;20010;-64
2022/03/24 23:16:46;;;;;;;;;;;;;;;-139.34;100.00;63888.56;10609515;27;19925;-64
2022/03/24 23:22:08;;;;;;;;;;;;;;;-139.34;100.00;63888.56;10610953;27;19919;-64
2022/03/24 23:27:30;;;;;;;;;;;;;;;-139.34;100.00;63888.56;10615122;27;19919;-64
2022/03/24 23:32:51;;;;;;;;;;;;;;;-139.34;100.00;63888.56;10599364;27;20290;-64
2022/03/24 23:38:14;;;;;;;;;;;;;;;-139.34;100.00;63888.56;10610329;27;19919;-64
2022/03/24 23:43:35;;;;;;;;;;;;;;;-139.34;100.00;63888.56;10650106;27;19926;-64
2022/03/24 23:48:57;;;;;;;;;;;;;;;-139.34;100.00;63888.56;10626807;27;20378;-64
2022/03/24 23:54:20;;;;;;;;;;;;;;;-139.34;100.00;63888.56;10613274;27;19926;-64
2022/03/24 23:59:42;;;;;;;;;;;;;;;-139.34;100.00;63888.56;10606702;27;19919;-64
